createdAt,value
2017-10-17T00:00:46.205Z,0
2017-10-17T00:01:46.270Z,0
2017-10-17T00:02:46.510Z,0
2017-10-17T00:03:46.563Z,0
2017-10-17T00:04:46.481Z,0
2017-10-17T00:05:46.515Z,0
2017-10-17T00:06:46.825Z,0
2017-10-17T00:07:46.513Z,0
2017-10-17T00:08:46.451Z,0
2017-10-17T00:09:46.161Z,0
2017-10-17T00:10:46.792Z,0
2017-10-17T00:11:46.031Z,0
2017-10-17T00:12:46.362Z,0
2017-10-17T00:13:45.739Z,0
2017-10-17T00:14:46.645Z,0
2017-10-17T00:15:45.651Z,0
2017-10-17T00:16:46.279Z,0
2017-10-17T00:17:46.632Z,0
2017-10-17T00:18:45.940Z,0
2017-10-17T00:19:46.565Z,0
2017-10-17T00:20:46.225Z,0
2017-10-17T00:21:46.520Z,0
2017-10-17T00:22:45.875Z,0
2017-10-17T00:23:46.168Z,0
2017-10-17T00:24:45.843Z,0
2017-10-17T00:25:46.461Z,0
2017-10-17T00:26:45.804Z,0
2017-10-17T00:27:45.771Z,0
2017-10-17T00:28:46.524Z,0
2017-10-17T00:29:45.770Z,0
2017-10-17T00:30:46.060Z,0
2017-10-17T00:31:45.735Z,0
2017-10-17T00:32:46.342Z,0
2017-10-17T00:33:45.373Z,0
2017-10-17T00:34:46.333Z,0
2017-10-17T00:35:45.703Z,0
2017-10-17T00:36:45.711Z,0
2017-10-17T00:37:45.955Z,0
2017-10-17T00:38:45.613Z,0
2017-10-17T00:39:45.991Z,0
2017-10-17T00:40:46.228Z,0
2017-10-17T00:41:45.941Z,0
2017-10-17T00:42:45.552Z,0
2017-10-17T00:43:45.531Z,0
2017-10-17T00:44:45.839Z,0
2017-10-17T00:45:45.498Z,0
2017-10-17T00:46:45.812Z,0
2017-10-17T00:47:45.468Z,0
2017-10-17T00:48:45.769Z,0
2017-10-17T00:49:45.769Z,0
2017-10-17T00:50:45.756Z,0
2017-10-17T00:51:45.728Z,0
2017-10-17T00:52:45.700Z,0
2017-10-17T00:53:45.369Z,0
2017-10-17T00:54:45.363Z,0
2017-10-17T00:55:45.679Z,0
2017-10-17T00:56:45.642Z,0
2017-10-17T00:57:45.945Z,0
2017-10-17T00:58:45.945Z,0
2017-10-17T00:59:45.621Z,0
2017-10-17T01:00:45.913Z,0
2017-10-17T01:01:45.578Z,0
2017-10-17T01:02:44.938Z,0
2017-10-17T01:03:45.539Z,0
2017-10-17T01:04:45.539Z,0
2017-10-17T01:05:45.824Z,0
2017-10-17T01:06:45.491Z,0
2017-10-17T01:07:45.468Z,0
2017-10-17T01:08:45.463Z,0
2017-10-17T01:09:45.442Z,0
2017-10-17T01:10:45.761Z,0
2017-10-17T01:11:45.761Z,0
2017-10-17T01:12:45.383Z,0
2017-10-17T01:13:45.122Z,0
2017-10-17T01:14:45.379Z,0
2017-10-17T01:15:45.671Z,0
2017-10-17T01:16:45.332Z,0
2017-10-17T01:17:45.019Z,0
2017-10-17T01:18:45.607Z,0
2017-10-17T01:19:45.619Z,0
2017-10-17T01:20:44.932Z,0
2017-10-17T01:21:45.251Z,0
2017-10-17T01:22:45.555Z,0
2017-10-17T01:23:45.543Z,0
2017-10-17T01:24:44.611Z,0
2017-10-17T01:25:44.647Z,0
2017-10-17T01:26:45.153Z,0
2017-10-17T01:27:45.241Z,0
2017-10-17T01:28:45.172Z,0
2017-10-17T01:29:45.477Z,0
2017-10-17T01:30:45.102Z,0
2017-10-17T01:31:44.530Z,0
2017-10-17T01:32:45.086Z,0
2017-10-17T01:33:44.508Z,0
2017-10-17T01:34:44.803Z,0
2017-10-17T01:35:44.044Z,0
2017-10-17T01:36:45.095Z,0
2017-10-17T01:37:45.082Z,0
2017-10-17T01:38:45.052Z,0
2017-10-17T01:39:45.293Z,0
2017-10-17T01:40:45.287Z,0
2017-10-17T01:41:44.928Z,0
2017-10-17T01:42:44.659Z,0
2017-10-17T01:43:44.566Z,0
2017-10-17T01:44:44.878Z,0
2017-10-17T01:45:44.519Z,0
2017-10-17T01:46:45.151Z,0
2017-10-17T01:47:44.944Z,0
2017-10-17T01:48:44.840Z,0
2017-10-17T01:49:44.800Z,0
2017-10-17T01:50:45.115Z,0
2017-10-17T01:51:45.102Z,0
2017-10-17T01:52:44.471Z,0
2017-10-17T01:53:45.062Z,0
2017-10-17T01:54:44.394Z,0
2017-10-17T01:55:44.742Z,0
2017-10-17T01:56:45.004Z,0
2017-10-17T01:57:44.350Z,0
2017-10-17T01:58:44.961Z,0
2017-10-17T01:59:44.662Z,0
2017-10-17T02:00:44.283Z,0
2017-10-17T02:01:44.292Z,0
2017-10-17T02:02:44.273Z,0
2017-10-17T02:03:44.575Z,0
2017-10-17T02:04:44.606Z,0
2017-10-17T02:05:44.220Z,0
2017-10-17T02:06:44.209Z,0
2017-10-17T02:07:44.491Z,0
2017-10-17T02:08:44.492Z,0
2017-10-17T02:09:44.141Z,0
2017-10-17T02:10:44.487Z,0
2017-10-17T02:11:44.423Z,0
2017-10-17T02:12:44.092Z,0
2017-10-17T02:13:44.063Z,0
2017-10-17T02:14:44.390Z,0
2017-10-17T02:15:44.673Z,0
2017-10-17T02:16:44.343Z,0
2017-10-17T02:17:44.462Z,0
2017-10-17T02:18:43.999Z,0
2017-10-17T02:19:44.634Z,0
2017-10-17T02:20:44.629Z,0
2017-10-17T02:21:44.260Z,0
2017-10-17T02:22:43.587Z,0
2017-10-17T02:23:44.235Z,0
2017-10-17T02:24:44.555Z,0
2017-10-17T02:25:44.189Z,0
2017-10-17T02:26:44.509Z,0
2017-10-17T02:27:43.833Z,0
2017-10-17T02:28:43.871Z,0
2017-10-17T02:29:44.185Z,0
2017-10-17T02:30:44.133Z,0
2017-10-17T02:31:43.452Z,0
2017-10-17T02:32:44.178Z,0
2017-10-17T02:33:44.132Z,0
2017-10-17T02:34:43.816Z,0
2017-10-17T02:35:44.366Z,0
2017-10-17T02:36:43.702Z,0
2017-10-17T02:37:43.998Z,0
2017-10-17T02:38:44.006Z,0
2017-10-17T02:39:43.971Z,0
2017-10-17T02:40:43.305Z,0
2017-10-17T02:41:44.250Z,0
2017-10-17T02:42:43.356Z,0
2017-10-17T02:43:43.238Z,0
2017-10-17T02:44:43.922Z,0
2017-10-17T02:45:43.227Z,0
2017-10-17T02:46:43.901Z,0
2017-10-17T02:47:43.499Z,0
2017-10-17T02:48:43.827Z,0
2017-10-17T02:49:43.487Z,0
2017-10-17T02:50:43.216Z,0
2017-10-17T02:51:43.514Z,0
2017-10-17T02:52:43.771Z,0
2017-10-17T02:53:44.107Z,0
2017-10-17T02:54:43.732Z,0
2017-10-17T02:55:43.712Z,0
2017-10-17T02:56:43.732Z,0
2017-10-17T02:57:43.031Z,0
2017-10-17T02:58:43.692Z,0
2017-10-17T02:59:43.730Z,0
2017-10-17T03:00:44.063Z,0
2017-10-17T03:01:43.995Z,0
2017-10-17T03:02:43.359Z,0
2017-10-17T03:03:43.969Z,0
2017-10-17T03:04:43.916Z,0
2017-10-17T03:05:43.542Z,0
2017-10-17T03:06:43.638Z,0
2017-10-17T03:07:43.229Z,0
2017-10-17T03:08:43.248Z,0
2017-10-17T03:09:43.461Z,0
2017-10-17T03:10:43.870Z,0
2017-10-17T03:11:43.131Z,0
2017-10-17T03:12:43.124Z,0
2017-10-17T03:13:43.100Z,0
2017-10-17T03:14:43.390Z,0
2017-10-17T03:15:43.075Z,0
2017-10-17T03:16:43.359Z,0
2017-10-17T03:17:43.369Z,0
2017-10-17T03:18:43.326Z,0
2017-10-17T03:19:43.368Z,0
2017-10-17T03:20:43.311Z,0
2017-10-17T03:21:43.282Z,0
2017-10-17T03:22:42.957Z,0
2017-10-17T03:23:42.911Z,0
2017-10-17T03:24:43.224Z,0
2017-10-17T03:25:43.317Z,0
2017-10-17T03:26:42.856Z,0
2017-10-17T03:27:43.533Z,0
2017-10-17T03:28:43.463Z,0
2017-10-17T03:29:43.469Z,0
2017-10-17T03:30:43.181Z,0
2017-10-17T03:31:42.860Z,0
2017-10-17T03:32:43.468Z,0
2017-10-17T03:33:43.446Z,0
2017-10-17T03:34:43.405Z,0
2017-10-17T03:35:42.713Z,0
2017-10-17T03:36:43.070Z,0
2017-10-17T03:37:43.328Z,0
2017-10-17T03:38:42.983Z,0
2017-10-17T03:39:42.989Z,0
2017-10-17T03:40:42.957Z,0
2017-10-17T03:41:43.302Z,0
2017-10-17T03:42:43.243Z,0
2017-10-17T03:43:42.972Z,0
2017-10-17T03:44:43.248Z,0
2017-10-17T03:45:43.212Z,0
2017-10-17T03:46:43.193Z,0
2017-10-17T03:47:42.531Z,0
2017-10-17T03:48:42.832Z,0
2017-10-17T03:49:43.144Z,0
2017-10-17T03:50:42.772Z,0
2017-10-17T03:51:43.107Z,0
2017-10-17T03:52:42.770Z,0
2017-10-17T03:53:42.752Z,0
2017-10-17T03:54:43.033Z,0
2017-10-17T03:55:42.697Z,0
2017-10-17T03:56:42.686Z,0
2017-10-17T03:57:42.658Z,0
2017-10-17T03:58:43.008Z,0
2017-10-17T03:59:42.981Z,0
2017-10-17T04:00:42.981Z,0
2017-10-17T04:01:42.614Z,0
2017-10-17T04:02:42.269Z,0
2017-10-17T04:03:42.358Z,0
2017-10-17T04:04:42.900Z,0
2017-10-17T04:05:41.899Z,0
2017-10-17T04:06:42.520Z,0
2017-10-17T04:07:42.845Z,0
2017-10-17T04:08:42.815Z,0
2017-10-17T04:09:42.776Z,0
2017-10-17T04:10:42.773Z,0
2017-10-17T04:11:41.790Z,0
2017-10-17T04:12:42.752Z,0
2017-10-17T04:13:42.733Z,0
2017-10-17T04:14:42.707Z,0
2017-10-17T04:15:41.722Z,0
2017-10-17T04:16:42.010Z,0
2017-10-17T04:17:42.331Z,0
2017-10-17T04:18:42.002Z,0
2017-10-17T04:19:42.315Z,0
2017-10-17T04:20:42.301Z,0
2017-10-17T04:21:41.952Z,0
2017-10-17T04:22:42.254Z,0
2017-10-17T04:23:41.924Z,0
2017-10-17T04:24:42.229Z,0
2017-10-17T04:25:41.903Z,0
2017-10-17T04:26:42.182Z,0
2017-10-17T04:27:41.864Z,0
2017-10-17T04:28:42.183Z,0
2017-10-17T04:29:41.817Z,0
2017-10-17T04:30:41.793Z,0
2017-10-17T04:31:42.101Z,0
2017-10-17T04:32:41.767Z,0
2017-10-17T04:33:41.770Z,0
2017-10-17T04:34:42.114Z,0
2017-10-17T04:35:42.112Z,0
2017-10-17T04:36:42.035Z,0
2017-10-17T04:37:42.333Z,0
2017-10-17T04:38:41.336Z,0
2017-10-17T04:39:42.093Z,0
2017-10-17T04:40:42.266Z,0
2017-10-17T04:41:41.602Z,0
2017-10-17T04:42:41.910Z,0
2017-10-17T04:43:41.571Z,0
2017-10-17T04:44:41.549Z,0
2017-10-17T04:45:42.212Z,0
2017-10-17T04:46:41.913Z,0
2017-10-17T04:47:41.291Z,0
2017-10-17T04:48:41.843Z,0
2017-10-17T04:49:42.135Z,0
2017-10-17T04:50:41.465Z,0
2017-10-17T04:51:41.762Z,0
2017-10-17T04:52:41.746Z,0
2017-10-17T04:53:41.486Z,0
2017-10-17T04:54:42.078Z,0
2017-10-17T04:55:41.696Z,0
2017-10-17T04:56:41.399Z,0
2017-10-17T04:57:41.656Z,0
2017-10-17T04:58:41.118Z,0
2017-10-17T04:59:41.778Z,0
2017-10-17T05:00:41.926Z,0
2017-10-17T05:01:41.349Z,0
2017-10-17T05:02:41.898Z,0
2017-10-17T05:03:40.926Z,0
2017-10-17T05:04:41.851Z,0
2017-10-17T05:05:41.211Z,0
2017-10-17T05:06:41.522Z,0
2017-10-17T05:07:41.497Z,0
2017-10-17T05:08:41.803Z,0
2017-10-17T05:09:41.475Z,0
2017-10-17T05:10:41.444Z,0
2017-10-17T05:11:41.450Z,0
2017-10-17T05:12:41.756Z,0
2017-10-17T05:13:41.398Z,0
2017-10-17T05:14:41.393Z,0
2017-10-17T05:15:41.057Z,0
2017-10-17T05:16:41.674Z,0
2017-10-17T05:17:41.764Z,0
2017-10-17T05:18:41.332Z,0
2017-10-17T05:19:41.387Z,0
2017-10-17T05:20:41.302Z,0
2017-10-17T05:21:41.256Z,0
2017-10-17T05:22:41.024Z,0
2017-10-17T05:23:41.552Z,0
2017-10-17T05:24:41.635Z,0
2017-10-17T05:25:40.865Z,0
2017-10-17T05:26:41.503Z,0
2017-10-17T05:27:41.173Z,0
2017-10-17T05:28:41.253Z,0
2017-10-17T05:29:41.135Z,0
2017-10-17T05:30:40.793Z,0
2017-10-17T05:31:40.803Z,0
2017-10-17T05:32:41.119Z,0
2017-10-17T05:33:40.752Z,0
2017-10-17T05:34:41.040Z,0
2017-10-17T05:35:40.382Z,0
2017-10-17T05:36:40.714Z,0
2017-10-17T05:37:40.674Z,0
2017-10-17T05:38:40.983Z,0
2017-10-17T05:39:40.972Z,0
2017-10-17T05:40:40.941Z,0
2017-10-17T05:41:40.970Z,0
2017-10-17T05:42:40.902Z,0
2017-10-17T05:43:41.311Z,0
2017-10-17T05:44:40.884Z,0
2017-10-17T05:45:40.873Z,0
2017-10-17T05:46:40.892Z,0
2017-10-17T05:47:40.841Z,0
2017-10-17T05:48:40.836Z,0
2017-10-17T05:49:40.475Z,0
2017-10-17T05:50:40.808Z,0
2017-10-17T05:51:41.142Z,0
2017-10-17T05:52:40.421Z,0
2017-10-17T05:53:41.072Z,0
2017-10-17T05:54:40.415Z,0
2017-10-17T05:55:41.074Z,0
2017-10-17T05:56:41.012Z,0
2017-10-17T05:57:41.060Z,0
2017-10-17T05:58:40.656Z,0
2017-10-17T05:59:41.047Z,0
2017-10-17T06:00:40.986Z,0
2017-10-17T06:01:40.964Z,0
2017-10-17T06:02:40.586Z,0
2017-10-17T06:03:40.553Z,0
2017-10-17T06:04:40.630Z,0
2017-10-17T06:05:40.250Z,0
2017-10-17T06:06:40.854Z,0
2017-10-17T06:07:40.852Z,0
2017-10-17T06:08:39.816Z,0
2017-10-17T06:09:40.471Z,5
2017-10-17T06:10:40.764Z,5
2017-10-17T06:11:40.838Z,5
2017-10-17T06:12:40.749Z,5
2017-10-17T06:13:40.460Z,5
2017-10-17T06:14:40.710Z,5
2017-10-17T06:15:40.702Z,5
2017-10-17T06:16:40.344Z,5
2017-10-17T06:17:40.775Z,5
2017-10-17T06:18:40.624Z,5
2017-10-17T06:19:40.718Z,5
2017-10-17T06:20:40.628Z,5
2017-10-17T06:21:40.256Z,5
2017-10-17T06:22:40.592Z,5
2017-10-17T06:23:40.273Z,5
2017-10-17T06:24:40.188Z,5
2017-10-17T06:25:40.532Z,5
2017-10-17T06:26:39.618Z,5
2017-10-17T06:27:40.585Z,5
2017-10-17T06:28:40.157Z,5
2017-10-17T06:29:40.155Z,5
2017-10-17T06:30:40.194Z,5
2017-10-17T06:31:40.086Z,10
2017-10-17T06:32:39.749Z,10
2017-10-17T06:33:40.431Z,10
2017-10-17T06:34:40.464Z,10
2017-10-17T06:35:40.024Z,10
2017-10-17T06:36:39.744Z,10
2017-10-17T06:37:39.659Z,10
2017-10-17T06:38:39.644Z,10
2017-10-17T06:39:40.358Z,10
2017-10-17T06:40:40.261Z,10
2017-10-17T06:41:40.269Z,10
2017-10-17T06:42:40.263Z,15
2017-10-17T06:43:39.550Z,10
2017-10-17T06:44:39.553Z,10
2017-10-17T06:45:39.855Z,15
2017-10-17T06:46:39.566Z,15
2017-10-17T06:47:40.133Z,15
2017-10-17T06:48:39.794Z,15
2017-10-17T06:49:39.796Z,15
2017-10-17T06:50:39.430Z,15
2017-10-17T06:51:39.731Z,15
2017-10-17T06:52:39.719Z,15
2017-10-17T06:53:39.724Z,15
2017-10-17T06:54:39.694Z,15
2017-10-17T06:55:39.682Z,15
2017-10-17T06:56:39.667Z,15
2017-10-17T06:57:39.649Z,15
2017-10-17T06:58:39.041Z,20
2017-10-17T06:59:39.939Z,20
2017-10-17T07:00:39.914Z,20
2017-10-17T07:01:39.253Z,20
2017-10-17T07:02:39.554Z,20
2017-10-17T07:03:39.313Z,15
2017-10-17T07:04:39.197Z,20
2017-10-17T07:05:39.839Z,20
2017-10-17T07:06:39.468Z,20
2017-10-17T07:07:39.492Z,20
2017-10-17T07:08:39.533Z,20
2017-10-17T07:09:39.774Z,20
2017-10-17T07:10:39.431Z,20
2017-10-17T07:11:39.433Z,25
2017-10-17T07:12:39.383Z,25
2017-10-17T07:13:38.733Z,25
2017-10-17T07:14:39.363Z,25
2017-10-17T07:15:39.654Z,25
2017-10-17T07:16:39.328Z,25
2017-10-17T07:17:39.636Z,25
2017-10-17T07:18:39.283Z,25
2017-10-17T07:19:39.340Z,25
2017-10-17T07:20:39.242Z,25
2017-10-17T07:21:38.635Z,20
2017-10-17T07:22:39.567Z,20
2017-10-17T07:23:38.572Z,20
2017-10-17T07:24:38.539Z,20
2017-10-17T07:25:39.499Z,25
2017-10-17T07:26:39.189Z,25
2017-10-17T07:27:39.141Z,25
2017-10-17T07:28:38.473Z,25
2017-10-17T07:29:38.793Z,30
2017-10-17T07:30:39.180Z,30
2017-10-17T07:31:38.778Z,30
2017-10-17T07:32:39.066Z,30
2017-10-17T07:33:38.703Z,30
2017-10-17T07:34:39.341Z,30
2017-10-17T07:35:39.044Z,30
2017-10-17T07:36:39.324Z,30
2017-10-17T07:37:38.981Z,30
2017-10-17T07:38:38.946Z,30
2017-10-17T07:39:38.608Z,30
2017-10-17T07:40:38.622Z,35
2017-10-17T07:41:38.589Z,35
2017-10-17T07:42:38.572Z,35
2017-10-17T07:43:38.556Z,40
2017-10-17T07:44:38.543Z,40
2017-10-17T07:45:39.180Z,40
2017-10-17T07:46:38.568Z,40
2017-10-17T07:47:39.117Z,40
2017-10-17T07:48:38.553Z,40
2017-10-17T07:49:39.091Z,35
2017-10-17T07:50:39.074Z,35
2017-10-17T07:51:38.423Z,35
2017-10-17T07:52:39.065Z,30
2017-10-17T07:53:38.732Z,35
2017-10-17T07:54:38.685Z,35
2017-10-17T07:55:38.349Z,35
2017-10-17T07:56:38.645Z,35
2017-10-17T07:57:38.625Z,40
2017-10-17T07:58:38.294Z,40
2017-10-17T07:59:38.674Z,40
2017-10-17T08:00:38.295Z,40
2017-10-17T08:01:38.260Z,45
2017-10-17T08:02:37.912Z,45
2017-10-17T08:03:38.643Z,45
2017-10-17T08:04:38.552Z,50
2017-10-17T08:05:38.514Z,50
2017-10-17T08:06:38.506Z,50
2017-10-17T08:07:38.543Z,50
2017-10-17T08:08:38.783Z,50
2017-10-17T08:09:38.518Z,50
2017-10-17T08:10:37.852Z,55
2017-10-17T08:11:38.788Z,55
2017-10-17T08:12:38.412Z,55
2017-10-17T08:13:37.735Z,60
2017-10-17T08:14:38.664Z,60
2017-10-17T08:15:38.663Z,60
2017-10-17T08:16:38.660Z,55
2017-10-17T08:17:38.387Z,55
2017-10-17T08:18:38.418Z,50
2017-10-17T08:19:38.607Z,50
2017-10-17T08:20:38.587Z,50
2017-10-17T08:21:38.270Z,50
2017-10-17T08:22:38.563Z,55
2017-10-17T08:23:38.535Z,55
2017-10-17T08:24:38.535Z,55
2017-10-17T08:25:38.206Z,55
2017-10-17T08:26:38.583Z,50
2017-10-17T08:27:38.506Z,50
2017-10-17T08:28:37.834Z,50
2017-10-17T08:29:38.112Z,50
2017-10-17T08:30:38.445Z,50
2017-10-17T08:31:38.428Z,50
2017-10-17T08:32:38.506Z,55
2017-10-17T08:33:38.428Z,50
2017-10-17T08:34:38.395Z,55
2017-10-17T08:35:38.343Z,65
2017-10-17T08:36:37.703Z,65
2017-10-17T08:37:38.440Z,60
2017-10-17T08:38:38.309Z,65
2017-10-17T08:39:37.969Z,55
2017-10-17T08:40:37.944Z,50
2017-10-17T08:41:38.012Z,50
2017-10-17T08:42:37.592Z,50
2017-10-17T08:43:37.983Z,50
2017-10-17T08:44:38.254Z,55
2017-10-17T08:45:37.982Z,55
2017-10-17T08:46:37.541Z,65
2017-10-17T08:47:37.848Z,70
2017-10-17T08:48:37.478Z,70
2017-10-17T08:49:37.895Z,70
2017-10-17T08:50:38.139Z,65
2017-10-17T08:51:37.881Z,65
2017-10-17T08:52:38.127Z,60
2017-10-17T08:53:38.126Z,55
2017-10-17T08:54:38.173Z,55
2017-10-17T08:55:38.047Z,55
2017-10-17T08:56:37.686Z,60
2017-10-17T08:57:38.076Z,65
2017-10-17T08:58:37.997Z,65
2017-10-17T08:59:38.011Z,65
2017-10-17T09:00:38.008Z,60
2017-10-17T09:01:38.319Z,65
2017-10-17T09:02:37.274Z,65
2017-10-17T09:03:37.932Z,80
2017-10-17T09:04:37.247Z,75
2017-10-17T09:05:37.221Z,90
2017-10-17T09:06:37.634Z,90
2017-10-17T09:07:37.926Z,85
2017-10-17T09:08:37.182Z,80
2017-10-17T09:09:37.846Z,80
2017-10-17T09:10:37.542Z,80
2017-10-17T09:11:37.130Z,85
2017-10-17T09:12:37.102Z,80
2017-10-17T09:13:37.421Z,80
2017-10-17T09:14:37.413Z,75
2017-10-17T09:15:37.409Z,70
2017-10-17T09:16:37.384Z,75
2017-10-17T09:17:37.374Z,75
2017-10-17T09:18:37.373Z,80
2017-10-17T09:19:37.689Z,80
2017-10-17T09:20:37.328Z,80
2017-10-17T09:21:37.332Z,75
2017-10-17T09:22:37.630Z,70
2017-10-17T09:23:37.295Z,70
2017-10-17T09:24:37.586Z,75
2017-10-17T09:25:37.261Z,75
2017-10-17T09:26:36.914Z,75
2017-10-17T09:27:37.212Z,75
2017-10-17T09:28:37.206Z,75
2017-10-17T09:29:37.184Z,75
2017-10-17T09:30:37.154Z,75
2017-10-17T09:31:36.824Z,70
2017-10-17T09:32:37.135Z,70
2017-10-17T09:33:36.788Z,75
2017-10-17T09:34:36.461Z,75
2017-10-17T09:35:37.418Z,75
2017-10-17T09:36:37.403Z,75
2017-10-17T09:37:36.087Z,75
2017-10-17T09:38:37.034Z,75
2017-10-17T09:39:37.014Z,75
2017-10-17T09:40:37.344Z,75
2017-10-17T09:41:37.014Z,75
2017-10-17T09:42:36.663Z,70
2017-10-17T09:43:37.294Z,70
2017-10-17T09:44:37.294Z,75
2017-10-17T09:45:37.305Z,75
2017-10-17T09:46:36.915Z,80
2017-10-17T09:47:36.265Z,80
2017-10-17T09:48:35.926Z,85
2017-10-17T09:49:36.874Z,85
2017-10-17T09:50:36.890Z,80
2017-10-17T09:51:37.174Z,85
2017-10-17T09:52:36.199Z,80
2017-10-17T09:53:36.830Z,75
2017-10-17T09:54:36.492Z,80
2017-10-17T09:55:36.787Z,75
2017-10-17T09:56:36.128Z,70
2017-10-17T09:57:37.094Z,70
2017-10-17T09:58:36.742Z,70
2017-10-17T09:59:37.047Z,70
2017-10-17T10:00:37.053Z,70
2017-10-17T10:01:36.375Z,70
2017-10-17T10:02:36.032Z,65
2017-10-17T10:03:36.985Z,60
2017-10-17T10:04:37.023Z,65
2017-10-17T10:05:36.675Z,65
2017-10-17T10:06:36.323Z,65
2017-10-17T10:07:36.602Z,65
2017-10-17T10:08:36.924Z,65
2017-10-17T10:09:36.916Z,65
2017-10-17T10:10:36.633Z,75
2017-10-17T10:11:36.560Z,75
2017-10-17T10:12:36.884Z,75
2017-10-17T10:13:36.264Z,75
2017-10-17T10:14:36.815Z,75
2017-10-17T10:15:36.580Z,80
2017-10-17T10:16:36.517Z,80
2017-10-17T10:17:36.461Z,85
2017-10-17T10:18:36.769Z,85
2017-10-17T10:19:36.459Z,90
2017-10-17T10:20:36.417Z,95
2017-10-17T10:21:36.405Z,100
2017-10-17T10:22:36.067Z,110
2017-10-17T10:23:36.152Z,110
2017-10-17T10:24:36.037Z,115
2017-10-17T10:25:35.732Z,120
2017-10-17T10:26:36.640Z,120
2017-10-17T10:27:36.347Z,125
2017-10-17T10:28:36.344Z,135
2017-10-17T10:29:35.969Z,160
2017-10-17T10:30:36.582Z,150
2017-10-17T10:31:36.577Z,135
2017-10-17T10:32:35.958Z,140
2017-10-17T10:33:36.246Z,150
2017-10-17T10:34:36.641Z,165
2017-10-17T10:35:36.535Z,170
2017-10-17T10:36:36.491Z,170
2017-10-17T10:37:36.267Z,185
2017-10-17T10:38:36.166Z,190
2017-10-17T10:39:36.486Z,195
2017-10-17T10:40:36.164Z,200
2017-10-17T10:41:36.127Z,205
2017-10-17T10:42:36.554Z,180
2017-10-17T10:43:36.194Z,185
2017-10-17T10:44:35.766Z,215
2017-10-17T10:45:36.067Z,205
2017-10-17T10:46:36.151Z,205
2017-10-17T10:47:36.134Z,195
2017-10-17T10:48:36.045Z,190
2017-10-17T10:49:36.013Z,205
2017-10-17T10:50:36.073Z,155
2017-10-17T10:51:35.343Z,170
2017-10-17T10:52:36.307Z,140
2017-10-17T10:53:36.344Z,125
2017-10-17T10:54:36.359Z,120
2017-10-17T10:55:36.305Z,115
2017-10-17T10:56:36.027Z,110
2017-10-17T10:57:35.908Z,105
2017-10-17T10:58:35.966Z,95
2017-10-17T10:59:35.897Z,85
2017-10-17T11:00:36.215Z,80
2017-10-17T11:01:36.308Z,80
2017-10-17T11:02:35.515Z,80
2017-10-17T11:03:36.173Z,80
2017-10-17T11:04:36.157Z,75
2017-10-17T11:05:36.134Z,70
2017-10-17T11:06:36.125Z,70
2017-10-17T11:07:35.775Z,70
2017-10-17T11:08:36.077Z,75
2017-10-17T11:09:35.664Z,75
2017-10-17T11:10:36.134Z,70
2017-10-17T11:11:36.033Z,70
2017-10-17T11:12:35.723Z,70
2017-10-17T11:13:35.376Z,70
2017-10-17T11:14:35.986Z,65
2017-10-17T11:15:35.687Z,65
2017-10-17T11:16:35.988Z,70
2017-10-17T11:17:35.958Z,70
2017-10-17T11:18:35.949Z,75
2017-10-17T11:19:35.930Z,70
2017-10-17T11:20:35.920Z,60
2017-10-17T11:21:35.949Z,60
2017-10-17T11:22:35.294Z,60
2017-10-17T11:23:35.888Z,60
2017-10-17T11:24:35.544Z,65
2017-10-17T11:25:35.865Z,65
2017-10-17T11:26:35.846Z,65
2017-10-17T11:27:35.625Z,60
2017-10-17T11:28:35.534Z,60
2017-10-17T11:29:35.796Z,70
2017-10-17T11:30:35.782Z,80
2017-10-17T11:31:35.777Z,85
2017-10-17T11:32:35.095Z,85
2017-10-17T11:33:35.419Z,95
2017-10-17T11:34:35.425Z,130
2017-10-17T11:35:35.386Z,130
2017-10-17T11:36:35.686Z,130
2017-10-17T11:37:35.028Z,130
2017-10-17T11:38:35.698Z,125
2017-10-17T11:39:35.657Z,125
2017-10-17T11:40:34.996Z,125
2017-10-17T11:41:34.964Z,125
2017-10-17T11:42:35.292Z,140
2017-10-17T11:43:34.929Z,130
2017-10-17T11:44:34.934Z,135
2017-10-17T11:45:35.344Z,155
2017-10-17T11:46:35.548Z,150
2017-10-17T11:47:34.255Z,160
2017-10-17T11:48:35.526Z,145
2017-10-17T11:49:35.526Z,145
2017-10-17T11:50:35.156Z,145
2017-10-17T11:51:34.171Z,150
2017-10-17T11:52:35.129Z,135
2017-10-17T11:53:34.802Z,125
2017-10-17T11:54:34.781Z,115
2017-10-17T11:55:34.759Z,120
2017-10-17T11:56:34.436Z,105
2017-10-17T11:57:34.417Z,95
2017-10-17T11:58:34.403Z,90
2017-10-17T11:59:34.708Z,85
2017-10-17T12:00:34.693Z,85
2017-10-17T12:01:35.049Z,95
2017-10-17T12:02:35.032Z,115
2017-10-17T12:03:34.985Z,115
2017-10-17T12:04:35.078Z,120
2017-10-17T12:05:35.038Z,120
2017-10-17T12:06:34.941Z,120
2017-10-17T12:07:34.609Z,115
2017-10-17T12:08:34.932Z,115
2017-10-17T12:09:35.332Z,120
2017-10-17T12:10:34.338Z,110
2017-10-17T12:11:34.958Z,115
2017-10-17T12:12:34.871Z,115
2017-10-17T12:13:34.845Z,110
2017-10-17T12:14:34.959Z,110
2017-10-17T12:15:35.170Z,115
2017-10-17T12:16:34.873Z,115
2017-10-17T12:17:35.161Z,120
2017-10-17T12:18:34.870Z,115
2017-10-17T12:19:34.801Z,120
2017-10-17T12:20:34.805Z,115
2017-10-17T12:21:34.791Z,115
2017-10-17T12:22:34.786Z,115
2017-10-17T12:23:35.051Z,110
2017-10-17T12:24:35.074Z,115
2017-10-17T12:25:34.698Z,115
2017-10-17T12:26:34.735Z,115
2017-10-17T12:27:34.667Z,115
2017-10-17T12:28:34.988Z,115
2017-10-17T12:29:34.952Z,110
2017-10-17T12:30:34.664Z,115
2017-10-17T12:31:34.654Z,115
2017-10-17T12:32:35.015Z,115
2017-10-17T12:33:34.628Z,120
2017-10-17T12:34:34.304Z,120
2017-10-17T12:35:34.585Z,120
2017-10-17T12:36:34.291Z,120
2017-10-17T12:37:34.873Z,120
2017-10-17T12:38:34.864Z,120
2017-10-17T12:39:34.201Z,120
2017-10-17T12:40:34.506Z,120
2017-10-17T12:41:33.831Z,120
2017-10-17T12:42:34.484Z,120
2017-10-17T12:43:34.796Z,115
2017-10-17T12:44:34.769Z,120
2017-10-17T12:45:34.097Z,120
2017-10-17T12:46:34.762Z,115
2017-10-17T12:47:34.718Z,110
2017-10-17T12:48:34.077Z,115
2017-10-17T12:49:33.786Z,115
2017-10-17T12:50:34.175Z,115
2017-10-17T12:51:34.367Z,110
2017-10-17T12:52:34.000Z,110
2017-10-17T12:53:34.015Z,110
2017-10-17T12:54:34.628Z,110
2017-10-17T12:55:34.008Z,110
2017-10-17T12:56:34.107Z,110
2017-10-17T12:57:33.624Z,110
2017-10-17T12:58:33.957Z,110
2017-10-17T12:59:33.924Z,110
2017-10-17T13:00:34.040Z,110
2017-10-17T13:01:34.573Z,110
2017-10-17T13:02:34.547Z,110
2017-10-17T13:03:33.610Z,110
2017-10-17T13:04:33.553Z,110
2017-10-17T13:05:34.186Z,110
2017-10-17T13:06:34.532Z,110
2017-10-17T13:07:33.893Z,100
2017-10-17T13:08:34.140Z,100
2017-10-17T13:09:34.131Z,100
2017-10-17T13:10:33.814Z,100
2017-10-17T13:11:33.779Z,100
2017-10-17T13:12:34.074Z,95
2017-10-17T13:13:33.790Z,95
2017-10-17T13:14:34.404Z,95
2017-10-17T13:15:34.083Z,90
2017-10-17T13:16:34.030Z,90
2017-10-17T13:17:34.059Z,90
2017-10-17T13:18:34.013Z,90
2017-10-17T13:19:34.022Z,90
2017-10-17T13:20:34.371Z,85
2017-10-17T13:21:33.743Z,85
2017-10-17T13:22:34.301Z,85
2017-10-17T13:23:33.312Z,85
2017-10-17T13:24:34.004Z,85
2017-10-17T13:25:33.906Z,85
2017-10-17T13:26:33.586Z,85
2017-10-17T13:27:34.286Z,85
2017-10-17T13:28:33.910Z,85
2017-10-17T13:29:33.543Z,85
2017-10-17T13:30:34.248Z,85
2017-10-17T13:31:34.168Z,80
2017-10-17T13:32:33.496Z,80
2017-10-17T13:33:33.811Z,80
2017-10-17T13:34:33.803Z,80
2017-10-17T13:35:33.795Z,75
2017-10-17T13:36:33.428Z,75
2017-10-17T13:37:33.447Z,75
2017-10-17T13:38:33.781Z,75
2017-10-17T13:39:33.762Z,75
2017-10-17T13:40:33.706Z,75
2017-10-17T13:41:33.807Z,75
2017-10-17T13:42:33.732Z,70
2017-10-17T13:43:33.673Z,70
2017-10-17T13:44:33.675Z,70
2017-10-17T13:45:33.653Z,65
2017-10-17T13:46:33.328Z,65
2017-10-17T13:47:33.623Z,65
2017-10-17T13:48:33.944Z,65
2017-10-17T13:49:34.042Z,65
2017-10-17T13:50:33.593Z,60
2017-10-17T13:51:33.894Z,60
2017-10-17T13:52:33.231Z,60
2017-10-17T13:53:33.888Z,60
2017-10-17T13:54:33.913Z,60
2017-10-17T13:55:33.826Z,60
2017-10-17T13:56:33.526Z,60
2017-10-17T13:57:33.507Z,60
2017-10-17T13:58:33.796Z,60
2017-10-17T13:59:33.825Z,60
2017-10-17T14:00:33.112Z,60
2017-10-17T14:01:33.764Z,60
2017-10-17T14:02:33.761Z,60
2017-10-17T14:03:33.752Z,55
2017-10-17T14:04:33.742Z,55
2017-10-17T14:05:33.701Z,55
2017-10-17T14:06:33.702Z,55
2017-10-17T14:07:33.394Z,55
2017-10-17T14:08:33.687Z,50
2017-10-17T14:09:33.680Z,50
2017-10-17T14:10:33.335Z,50
2017-10-17T14:11:33.619Z,50
2017-10-17T14:12:33.647Z,45
2017-10-17T14:13:33.293Z,45
2017-10-17T14:14:32.938Z,45
2017-10-17T14:15:33.572Z,45
2017-10-17T14:16:33.580Z,40
2017-10-17T14:17:33.535Z,40
2017-10-17T14:18:33.265Z,40
2017-10-17T14:19:33.526Z,40
2017-10-17T14:20:33.495Z,40
2017-10-17T14:21:33.470Z,40
2017-10-17T14:22:33.244Z,40
2017-10-17T14:23:33.136Z,40
2017-10-17T14:24:33.122Z,40